Time;durP1;ratioP1;P1;durP2;ratioP2;P2;SDS_P1;SDS_P2;PMS_P1;PMS_P2;Temp;Humidity;BMP_temperature;BMP_pressure;BME280_temperature;BME280_humidity;BME280_pressure;Samples;Min_cycle;Max_cycle;Signal;HPM_P1;HPM_P2
2022/04/06 06:04:08;;;;;;;4.78;2.33;;;;;;;8.72;97.13;98633.78;4939301;28;20123;-86
2022/04/06 06:06:33;;;;;;;3.83;2.10;;;;;;;8.80;96.96;98626.66;4936809;28;20102;-86
2022/04/06 06:08:58;;;;;;;4.88;2.35;;;;;;;8.73;95.86;98627.47;4944565;28;20043;-86
2022/04/06 06:11:23;;;;;;;6.22;2.28;;;;;;;8.78;96.21;98635.81;4935026;28;20023;-86
2022/04/06 06:13:49;;;;;;;4.63;2.10;;;;;;;8.78;96.73;98615.34;4945231;28;20564;-86
2022/04/06 06:16:14;;;;;;;6.13;2.38;;;;;;;8.71;95.83;98632.13;4934708;28;20058;-86
2022/04/06 06:18:40;;;;;;;5.05;2.35;;;;;;;8.75;96.09;98625.47;4934990;28;20250;-86
2022/04/06 06:21:05;;;;;;;2.72;1.98;;;;;;;8.75;96.33;98620.16;4945681;28;20346;-86
2022/04/06 06:23:31;;;;;;;4.38;2.03;;;;;;;8.73;96.10;98617.66;4937217;28;20049;-86
2022/04/06 06:25:56;;;;;;;6.43;2.20;;;;;;;8.72;96.17;98626.63;4942884;28;20042;-86
2022/04/06 06:28:23;;;;;;;7.95;2.20;;;;;;;8.72;96.38;98629.31;4929449;28;20174;-86
2022/04/06 06:30:48;;;;;;;3.03;1.92;;;;;;;8.76;96.30;98614.66;4946354;28;20066;-86
2022/04/06 06:33:13;;;;;;;5.30;2.40;;;;;;;8.73;96.67;98614.16;4934296;28;21075;-86
2022/04/06 06:35:39;;;;;;;3.67;1.98;;;;;;;8.77;96.80;98621.66;4933985;29;20115;-86
2022/04/06 06:38:04;;;;;;;4.55;2.00;;;;;;;8.81;97.07;98606.19;4942123;28;20031;-86
2022/04/06 06:40:30;;;;;;;5.40;2.15;;;;;;;8.77;96.29;98628.81;4941855;28;20038;-85
2022/04/06 06:42:55;;;;;;;4.72;1.98;;;;;;;8.79;96.55;98625.00;4941330;28;20369;-86
2022/04/06 06:45:21;;;;;;;3.17;2.03;;;;;;;8.74;96.91;98624.66;4932388;29;20516;-86
2022/04/06 06:47:46;;;;;;;5.15;1.95;;;;;;;8.74;97.24;98616.66;4931765;29;20529;-86
2022/04/06 06:50:13;;;;;;;5.57;2.35;;;;;;;8.81;97.42;98617.69;4933238;28;20465;-86
2022/04/06 06:52:38;;;;;;;4.28;1.98;;;;;;;8.81;97.51;98616.84;4942349;28;20042;-86
2022/04/06 06:55:07;;;;;;;4.57;1.83;;;;;;;8.76;97.42;98609.31;4940360;28;20031;-86
2022/04/06 06:57:32;;;;;;;3.83;1.70;;;;;;;8.78;96.68;98622.50;4933011;28;20031;-86
2022/04/06 06:59:57;;;;;;;3.13;1.63;;;;;;;8.74;96.43;98613.97;4941533;28;20039;-86
2022/04/06 07:02:23;;;;;;;3.10;1.80;;;;;;;8.73;96.08;98601.66;4942674;28;20041;-86
2022/04/06 07:04:49;;;;;;;3.13;1.58;;;;;;;8.83;96.32;98606.84;4940778;28;20067;-86
2022/04/06 07:07:14;;;;;;;4.00;1.75;;;;;;;8.82;95.87;98611.34;4932730;28;20073;-86
2022/04/06 07:09:39;;;;;;;3.70;1.52;;;;;;;8.79;96.21;98589.50;4925789;29;20038;-86
2022/04/06 07:12:06;;;;;;;3.42;1.63;;;;;;;8.84;96.44;98606.69;4933522;28;20031;-86
2022/04/06 07:14:32;;;;;;;3.60;1.60;;;;;;;8.83;96.23;98596.19;4942557;28;20130;-86
2022/04/06 07:16:58;;;;;;;4.90;1.50;;;;;;;8.83;96.13;98591.69;4942953;28;20110;-88
2022/04/06 07:19:24;;;;;;;1.83;1.50;;;;;;;8.80;95.26;98592.03;4925355;29;20435;-87
2022/04/06 07:21:49;;;;;;;5.50;1.85;;;;;;;8.79;94.79;98578.84;4933481;29;20062;-87
2022/04/06 07:24:15;;;;;;;3.55;1.52;;;;;;;8.79;95.55;98587.69;4943989;28;20123;-88
2022/04/06 07:26:40;;;;;;;3.05;1.50;;;;;;;8.81;96.57;98593.69;4941811;28;20449;-88
2022/04/06 07:29:09;;;;;;;3.28;1.73;;;;;;;8.79;95.16;98595.69;4941033;28;20035;-88
2022/04/06 07:31:35;;;;;;;5.32;2.25;;;;;;;8.73;94.75;98593.66;4933170;28;20080;-88
2022/04/06 07:34:01;;;;;;;2.97;1.83;;;;;;;8.78;95.52;98585.19;4933794;28;20043;-88
2022/04/06 07:36:26;;;;;;;3.63;1.77;;;;;;;8.81;95.69;98584.84;4929110;29;20027;-88
2022/04/06 07:38:51;;;;;;;3.45;1.70;;;;;;;8.83;96.01;98596.19;4939758;28;20444;-88
2022/04/06 07:41:17;;;;;;;4.35;1.50;;;;;;;8.78;95.66;98577.19;4932986;28;20365;-88
2022/04/06 07:43:44;;;;;;;4.10;1.60;;;;;;;8.81;95.54;98587.53;4933559;29;20024;-87
2022/04/06 07:46:10;;;;;;;4.15;1.63;;;;;;;8.72;94.82;98597.31;4932582;28;20023;-88
2022/04/06 07:48:35;;;;;;;2.83;1.60;;;;;;;8.78;94.44;98585.19;4941057;28;20036;-88
2022/04/06 07:51:00;;;;;;;6.68;1.70;;;;;;;8.79;93.15;98579.69;4939204;28;20667;-88
2022/04/06 07:53:26;;;;;;;2.78;1.70;;;;;;;8.75;93.71;98580.16;4941098;28;20039;-88
2022/04/06 07:55:51;;;;;;;3.17;1.73;;;;;;;8.73;94.59;98583.00;4941955;28;20039;-87
2022/04/06 07:58:18;;;;;;;6.28;1.60;;;;;;;8.74;94.98;98582.00;4942986;28;20054;-88
2022/04/06 08:00:44;;;;;;;4.30;1.60;;;;;;;8.77;94.56;98587.00;4932549;29;20086;-87
2022/04/06 08:03:09;;;;;;;5.07;1.70;;;;;;;8.77;94.20;98581.69;4932673;29;20424;-88
2022/04/06 08:05:35;;;;;;;6.90;1.80;;;;;;;8.73;94.45;98579.50;4941891;28;20059;-88
2022/04/06 08:08:01;;;;;;;4.60;1.60;;;;;;;8.81;93.73;98582.19;4940600;28;20102;-88
2022/04/06 08:10:30;;;;;;;2.72;1.80;;;;;;;8.80;93.84;98581.34;4941891;28;20065;-88
2022/04/06 08:12:55;;;;;;;;;;;;;;;8.77;93.09;98588.84;4940602;28;20035;-88
2022/04/06 08:15:20;;;;;;;2.97;1.88;;;;;;;8.81;93.59;98579.53;4931485;29;19929;-87
2022/04/06 08:17:46;;;;;;;5.75;1.80;;;;;;;8.74;93.82;98589.16;4931355;29;20070;-88
2022/04/06 08:20:14;;;;;;;5.07;1.70;;;;;;;8.79;94.01;98576.19;4940333;28;20035;-88
2022/04/06 08:22:40;;;;;;;3.25;1.80;;;;;;;8.75;94.02;98586.34;4939589;28;20032;-88
2022/04/06 08:25:06;;;;;;;2.88;1.85;;;;;;;8.86;94.31;98579.88;4940482;28;20039;-88
2022/04/06 08:27:36;;;;;;;3.17;1.70;;;;;;;8.76;93.41;98579.19;4931309;29;20480;-87
2022/04/06 08:30:02;;;;;;;3.35;1.85;;;;;;;8.80;93.72;98592.03;4931241;28;20466;-88
2022/04/06 08:32:28;;;;;;;4.47;1.77;;;;;;;8.86;93.33;98585.22;4924950;28;20059;-88
2022/04/06 08:34:53;;;;;;;4.13;1.60;;;;;;;8.81;93.51;98579.53;4931974;29;20599;-88
2022/04/06 08:37:18;;;;;;;5.70;1.70;;;;;;;8.83;92.02;98569.53;4941196;28;20854;-88
2022/04/06 08:39:44;;;;;;;3.55;1.35;;;;;;;8.79;92.71;98554.88;4940441;28;20126;-87
2022/04/06 08:42:10;;;;;;;5.32;1.92;;;;;;;8.80;91.85;98561.88;4930854;28;20051;-87
2022/04/06 08:44:35;;;;;;;5.47;1.40;;;;;;;8.81;91.95;98552.88;4931852;28;20126;-87
2022/04/06 08:47:06;;;;;;;2.70;1.40;;;;;;;8.86;92.09;98561.22;4940090;28;20109;-88
2022/04/06 08:49:32;;;;;;;4.20;1.67;;;;;;;8.90;91.46;98559.06;4929378;28;20070;-88
2022/04/06 08:51:59;;;;;;;3.85;1.60;;;;;;;8.87;92.20;98554.06;4940398;28;20583;-88
2022/04/06 08:54:24;;;;;;;3.05;1.60;;;;;;;8.93;92.52;98556.06;4940844;28;20038;-88
2022/04/06 08:56:50;;;;;;;3.97;1.63;;;;;;;8.98;92.60;98559.09;4924816;29;20035;-87
2022/04/06 08:59:16;;;;;;;3.50;1.38;;;;;;;8.97;93.42;98562.75;4930266;29;20462;-87
2022/04/06 09:01:41;;;;;;;2.67;1.40;;;;;;;8.98;92.20;98562.59;4930894;29;20148;-87
2022/04/06 09:04:07;;;;;;;4.80;1.60;;;;;;;9.03;93.33;98564.78;4926396;28;20071;-88
2022/04/06 09:06:40;;;;;;;3.22;1.65;;;;;;;8.98;91.91;98562.59;4927175;29;20351;-87
2022/04/06 09:09:06;;;;;;;2.55;1.20;;;;;;;9.06;92.09;98561.81;4943114;28;20062;-87
2022/04/06 09:11:41;;;;;;;3.20;1.58;;;;;;;9.09;92.69;98566.81;4942554;28;20168;-87
2022/04/06 09:14:06;;;;;;;3.35;1.52;;;;;;;9.12;93.68;98558.47;4926050;28;20042;-87
2022/04/06 09:16:34;;;;;;;4.43;1.70;;;;;;;9.11;94.49;98557.66;4933218;29;20658;-87
2022/04/06 09:19:07;;;;;;;3.42;1.50;;;;;;;9.15;94.48;98564.31;4928131;29;20053;-87
2022/04/06 09:21:38;;;;;;;3.42;1.63;;;;;;;9.17;94.41;98556.16;4943374;28;20125;-87
2022/04/06 09:24:04;;;;;;;3.20;1.42;;;;;;;9.15;94.22;98574.16;4949987;28;20062;-88
2022/04/06 09:26:31;;;;;;;5.63;1.50;;;;;;;9.14;93.34;98567.97;4933846;29;20563;-88
2022/04/06 09:28:57;;;;;;;4.28;1.50;;;;;;;9.17;92.57;98556.16;4926195;29;20027;-88
2022/04/06 09:31:22;;;;;;;3.47;1.45;;;;;;;9.15;92.13;98566.97;4926535;29;20038;-88
2022/04/06 09:34:00;;;;;;;5.57;1.70;;;;;;;9.15;91.60;98552.81;4943218;28;20137;-87
2022/04/06 09:36:30;;;;;;;4.18;1.50;;;;;;;9.20;91.77;98555.00;4926269;29;20202;-87
2022/04/06 09:38:56;;;;;;;2.97;1.38;;;;;;;9.20;93.66;98574.50;4933631;29;20094;-88
2022/04/06 09:41:21;;;;;;;3.83;1.70;;;;;;;9.24;93.85;98548.31;4942218;28;20031;-87
2022/04/06 09:43:47;;;;;;;4.53;1.58;;;;;;;9.25;93.15;98563.34;4940011;28;20046;-87
2022/04/06 09:49:10;;;;;;;2.28;1.50;;;;;;;9.23;92.29;98549.31;4942425;28;20630;-87
2022/04/06 09:51:37;;;;;;;1.98;1.33;;;;;;;9.18;92.37;98551.66;4943530;28;20451;-87
2022/04/06 09:54:04;;;;;;;2.53;1.77;;;;;;;9.26;93.56;98559.66;4934404;28;20035;-87
2022/04/06 09:56:34;;;;;;;3.08;1.58;;;;;;;9.24;93.62;98559.00;4943508;28;20126;-87
2022/04/06 09:59:01;;;;;;;4.07;1.30;;;;;;;9.27;94.21;98564.00;4925628;29;20028;-87
2022/04/06 10:01:34;;;;;;;3.17;1.60;;;;;;;9.22;93.32;98547.66;4934240;29;20031;-87
2022/04/06 10:04:04;;;;;;;3.47;1.60;;;;;;;9.22;93.63;98553.00;4933776;28;20019;-87
2022/04/06 10:06:32;;;;;;;2.80;1.52;;;;;;;9.23;94.46;98550.16;4925563;29;20039;-87
2022/04/06 10:08:59;;;;;;;3.20;1.30;;;;;;;9.23;93.57;98555.50;4932884;29;20109;-87
2022/04/06 10:11:25;;;;;;;3.45;1.52;;;;;;;9.26;94.02;98554.34;4925261;29;20123;-87
2022/04/06 10:13:51;;;;;;;2.53;1.20;;;;;;;9.29;93.48;98548.66;4932885;29;20186;-87
2022/04/06 10:16:17;;;;;;;4.40;1.67;;;;;;;9.27;94.35;98548.84;4924913;29;20039;-88
2022/04/06 10:18:42;;;;;;;2.92;1.30;;;;;;;9.29;94.21;98543.34;4926640;29;20384;-88
2022/04/06 10:21:34;;;;;;;2.17;1.30;;;;;;;9.30;94.95;98545.00;4934144;29;20027;-88
2022/04/06 10:24:24;;;;;;;3.25;1.50;;;;;;;9.31;94.85;98536.00;4943598;28;20039;-88
2022/04/06 10:27:09;;;;;;;5.15;1.48;;;;;;;9.30;93.71;98540.50;4934097;29;20587;-88
2022/04/06 10:30:05;;;;;;;2.70;1.25;;;;;;;9.31;93.57;98528.00;4939180;28;20031;-88
2022/04/06 10:32:41;;;;;;;2.72;1.40;;;;;;;9.33;92.13;98542.00;4940607;28;20039;-88
2022/04/06 10:35:23;;;;;;;2.33;1.40;;;;;;;9.32;92.05;98535.84;4933520;29;20540;-88
2022/04/06 10:37:53;;;;;;;2.13;1.30;;;;;;;9.37;92.31;98535.34;4942263;28;20381;-88
2022/04/06 10:40:19;;;;;;;2.85;1.40;;;;;;;9.37;92.99;98540.66;4934159;28;20461;-88
2022/04/06 10:42:46;;;;;;;3.70;1.60;;;;;;;9.41;92.93;98523.31;4941108;28;20035;-88
2022/04/06 10:45:29;;;;;;;3.88;1.30;;;;;;;9.44;93.59;98525.66;4932203;29;20380;-88
2022/04/06 10:48:18;;;;;;;4.88;1.40;;;;;;;9.48;93.72;98534.19;4939548;28;20031;-88
2022/04/06 10:50:48;;;;;;;2.50;1.27;;;;;;;9.51;92.64;98529.38;4925406;28;20050;-88
2022/04/06 10:53:20;;;;;;;3.47;1.30;;;;;;;9.54;91.54;98521.03;4942217;28;20513;-88
2022/04/06 10:56:16;;;;;;;2.53;1.42;;;;;;;9.56;92.40;98516.34;4943270;28;20045;-88
2022/04/06 10:58:53;;;;;;;2.65;1.50;;;;;;;9.58;92.61;98517.03;4942374;28;20134;-88
2022/04/06 11:01:19;;;;;;;3.42;1.30;;;;;;;9.56;91.98;98535.03;4942008;28;20376;-88
2022/04/06 11:04:04;;;;;;;4.93;1.70;;;;;;;9.55;91.19;98509.34;4942184;28;20039;-88
2022/04/06 11:06:56;;;;;;;2.15;1.33;;;;;;;9.56;91.78;98516.34;4933485;28;20070;-87
2022/04/06 11:12:25;;;;;;;3.92;1.73;;;;;;;9.58;93.14;98505.50;4946255;28;20050;-87
2022/04/06 11:15:00;;;;;;;3.65;1.52;;;;;;;9.55;92.77;98504.00;4931952;29;20054;-87
2022/04/06 11:17:44;;;;;;;3.13;1.30;;;;;;;9.56;91.78;98513.69;4942720;28;20346;-87
2022/04/06 11:20:24;;;;;;;1.65;1.25;;;;;;;9.57;91.96;98514.53;4943204;28;20035;-87
2022/04/06 11:22:53;;;;;;;3.60;1.40;;;;;;;9.54;92.95;98515.69;4926880;29;20035;-87
2022/04/06 11:25:22;;;;;;;2.05;1.42;;;;;;;9.56;93.49;98491.50;4940348;28;20035;-87
2022/04/06 11:27:48;;;;;;;2.80;1.55;;;;;;;9.54;93.30;98497.00;4939217;28;20106;-86
2022/04/06 11:30:16;;;;;;;3.50;1.70;;;;;;;9.54;92.81;98489.00;4941072;28;20032;-87
2022/04/06 11:32:57;;;;;;;3.20;1.65;;;;;;;9.52;92.42;98495.50;4939930;28;20450;-87
2022/04/06 11:35:28;;;;;;;3.28;1.48;;;;;;;9.52;92.76;98491.00;4931603;28;20031;-87
2022/04/06 11:37:54;;;;;;;3.20;1.60;;;;;;;9.54;92.50;98480.16;4939036;29;20066;-87
2022/04/06 11:40:21;;;;;;;2.28;1.40;;;;;;;9.52;92.37;98495.50;4925564;29;20116;-87
2022/04/06 11:42:54;;;;;;;3.67;1.70;;;;;;;9.49;92.75;98483.34;4924727;29;20488;-87
2022/04/06 11:45:25;;;;;;;2.33;1.65;;;;;;;9.49;91.77;98482.50;4931897;29;20034;-87
2022/04/06 11:47:55;;;;;;;2.05;1.33;;;;;;;9.51;91.66;98491.16;4941340;28;20035;-87
2022/04/06 11:50:21;;;;;;;3.53;1.50;;;;;;;9.53;91.82;98481.16;4925887;29;20111;-87
2022/04/06 11:52:47;;;;;;;2.55;1.60;;;;;;;9.52;92.56;98474.16;4938607;29;20083;-87
2022/04/06 11:55:12;;;;;;;1.98;1.35;;;;;;;9.49;92.69;98474.50;4942598;28;20055;-87
2022/04/06 11:57:39;;;;;;;3.05;1.77;;;;;;;9.54;92.35;98477.50;4930239;29;20281;-87
2022/04/06 12:00:06;;;;;;;3.78;1.80;;;;;;;9.50;91.14;98479.66;4925128;29;20035;-87
2022/04/06 12:02:53;;;;;;;1.83;1.50;;;;;;;9.52;91.24;98471.50;4939310;28;20039;-87
2022/04/06 12:05:21;;;;;;;3.10;1.57;;;;;;;9.55;91.67;98460.47;4926191;29;20132;-87
2022/04/06 12:07:46;;;;;;;2.47;1.65;;;;;;;9.51;91.78;98453.81;4923969;29;20087;-87
2022/04/06 12:10:13;;;;;;;1.60;1.50;;;;;;;9.53;91.08;98436.63;4941218;28;20315;-87
2022/04/06 12:12:39;;;;;;;4.20;1.88;;;;;;;9.56;91.27;98452.31;4931239;29;20049;-87
2022/04/06 12:15:05;;;;;;;1.92;1.70;;;;;;;9.57;91.23;98456.66;4938614;28;20368;-87
2022/04/06 12:17:32;;;;;;;2.88;1.70;;;;;;;9.56;92.01;98444.31;4923094;29;20130;-87
2022/04/06 12:19:58;;;;;;;3.33;1.67;;;;;;;9.55;92.15;98447.97;4944719;28;20034;-87
2022/04/06 12:22:25;;;;;;;2.67;1.67;;;;;;;9.60;93.62;98439.47;4936702;28;20023;-87
2022/04/06 12:24:51;;;;;;;2.75;1.70;;;;;;;9.59;94.00;98443.13;4935094;28;20028;-87
2022/04/06 12:27:29;;;;;;;2.83;1.80;;;;;;;9.60;93.62;98432.28;4920316;29;20034;-87
2022/04/06 12:30:13;;;;;;;4.15;1.67;;;;;;;9.63;91.93;98428.44;4937435;28;20051;-87
2022/04/06 12:32:45;;;;;;;2.55;1.52;;;;;;;9.67;92.59;98413.75;4924357;29;20043;-87
2022/04/06 12:35:21;;;;;;;2.35;1.80;;;;;;;9.67;93.16;98427.09;4921451;29;20207;-87
2022/04/06 12:37:47;;;;;;;4.00;1.80;;;;;;;9.72;93.08;98414.91;4937404;28;20019;-87
2022/04/06 12:40:21;;;;;;;2.17;1.85;;;;;;;9.74;93.95;98425.41;4928260;29;21039;-87
2022/04/06 12:42:46;;;;;;;5.25;2.30;;;;;;;9.69;93.56;98411.75;4924770;28;20056;-90
2022/04/06 12:45:14;;;;;;;3.47;1.90;;;;;;;9.74;94.02;98401.38;4935705;29;20034;-90
2022/04/06 12:47:42;;;;;;;2.00;1.83;;;;;;;9.74;94.95;98407.56;4925348;28;20090;-90
2022/04/06 12:50:16;;;;;;;4.28;2.10;;;;;;;9.76;94.48;98405.56;4931739;29;20039;-90
2022/04/06 12:52:42;;;;;;;4.35;2.42;;;;;;;9.74;94.17;98404.88;4925645;29;20035;-89
2022/04/06 12:55:10;;;;;;;2.10;1.90;;;;;;;9.78;93.27;98400.88;4945527;29;20057;-90
2022/04/06 12:57:37;;;;;;;5.75;2.10;;;;;;;9.78;94.29;98395.53;4942990;28;20101;-90
2022/04/06 13:00:20;;;;;;;2.90;2.00;;;;;;;9.80;94.52;98390.03;4926416;29;20035;-89
2022/04/06 13:02:46;;;;;;;2.60;1.80;;;;;;;9.77;92.60;98399.22;4942090;28;20068;-89
2022/04/06 13:05:16;;;;;;;2.55;1.90;;;;;;;9.75;93.52;98379.84;4941177;29;20093;-90
2022/04/06 13:07:43;;;;;;;4.15;2.03;;;;;;;9.77;93.94;98391.19;4940759;28;20035;-90
2022/04/06 13:10:10;;;;;;;2.83;1.88;;;;;;;9.77;94.59;98382.34;4933058;29;20069;-90
2022/04/06 13:12:38;;;;;;;3.13;1.73;;;;;;;9.74;95.28;98388.03;4924702;28;20039;-90
2022/04/06 13:15:04;;;;;;;3.20;2.00;;;;;;;9.74;95.33;98383.53;4942138;29;20095;-90
2022/04/06 13:17:30;;;;;;;3.00;1.90;;;;;;;9.75;95.14;98376.34;4924250;28;20114;-90
2022/04/06 13:19:56;;;;;;;6.25;2.25;;;;;;;9.75;94.17;98376.34;4931583;29;20632;-90
2022/04/06 13:22:21;;;;;;;3.95;2.10;;;;;;;9.76;95.08;98380.69;4941204;28;20533;-90
2022/04/06 13:24:47;;;;;;;1.95;1.65;;;;;;;9.76;95.04;98375.34;4941054;28;20031;-90
2022/04/06 13:27:13;;;;;;;2.85;1.77;;;;;;;9.74;94.44;98364.84;4922174;29;20024;-90
2022/04/06 13:29:39;;;;;;;2.38;1.63;;;;;;;9.75;95.25;98355.84;4941003;28;20035;-91
2022/04/06 13:32:05;;;;;;;3.20;1.60;;;;;;;9.76;94.74;98354.00;4946052;28;20039;-90
2022/04/06 13:34:30;;;;;;;2.00;1.80;;;;;;;9.76;94.42;98352.16;4924009;28;20116;-90
2022/04/06 13:37:00;;;;;;;2.40;1.75;;;;;;;9.77;93.90;98351.16;4930828;29;20035;-91
2022/04/06 13:39:25;;;;;;;3.65;2.00;;;;;;;9.83;94.19;98344.28;4927144;28;20678;-90
2022/04/06 13:41:55;;;;;;;3.20;1.70;;;;;;;9.78;95.37;98342.16;4939434;28;20122;-90
2022/04/06 13:44:28;;;;;;;1.67;1.40;;;;;;;9.82;95.41;98339.97;4924548;29;20027;-90
2022/04/06 13:46:54;;;;;;;2.85;1.60;;;;;;;9.77;94.49;98324.47;4939674;29;20534;-89
2022/04/06 13:49:36;;;;;;;2.78;1.58;;;;;;;9.86;94.72;98327.09;4939677;28;20081;-90
2022/04/06 13:52:03;;;;;;;2.60;1.80;;;;;;;9.86;94.69;98322.59;4944799;28;20035;-90
2022/04/06 13:54:30;;;;;;;5.95;1.77;;;;;;;9.84;94.80;98323.75;4927003;28;20130;-90
2022/04/06 13:57:01;;;;;;;4.05;1.55;;;;;;;9.87;94.41;98315.41;4927551;29;20035;-90
2022/04/06 13:59:26;;;;;;;6.13;1.85;;;;;;;9.89;93.88;98313.41;4946312;28;20046;-90
2022/04/06 14:01:52;;;;;;;3.22;1.75;;;;;;;9.89;92.89;98302.72;4928660;29;20043;-90
2022/04/06 14:04:18;;;;;;;3.15;1.60;;;;;;;9.87;93.57;98307.41;4943644;29;20572;-90
2022/04/06 14:06:47;;;;;;;2.40;1.60;;;;;;;9.89;92.33;98303.53;4929527;29;20024;-90
2022/04/06 14:09:13;;;;;;;3.95;2.03;;;;;;;9.92;92.52;98305.03;4943609;28;20058;-90
2022/04/06 14:11:41;;;;;;;2.75;1.85;;;;;;;9.93;93.16;98298.69;4945229;28;20468;-90
2022/04/06 14:14:10;;;;;;;4.10;1.88;;;;;;;9.95;93.98;98291.38;4928367;29;20034;-90
2022/04/06 14:16:35;;;;;;;4.10;1.90;;;;;;;10.01;93.91;98282.66;4944315;28;20428;-90
2022/04/06 14:19:02;;;;;;;3.08;2.03;;;;;;;9.97;93.11;98287.50;4943697;28;20039;-90
2022/04/06 14:21:32;;;;;;;3.38;1.75;;;;;;;9.97;92.30;98286.69;4942572;28;20465;-90
2022/04/06 14:23:57;;;;;;;3.33;1.75;;;;;;;9.96;91.76;98274.34;4941542;29;20136;-89
2022/04/06 14:26:23;;;;;;;2.00;1.70;;;;;;;9.96;89.49;98285.84;4945325;28;20110;-90
2022/04/06 14:28:48;;;;;;;2.95;1.70;;;;;;;10.00;91.26;98281.00;4925913;29;20035;-90
2022/04/06 14:31:16;;;;;;;2.40;1.42;;;;;;;9.95;91.35;98284.19;4928523;28;20118;-90
2022/04/06 14:33:42;;;;;;;2.25;1.80;;;;;;;9.97;91.80;98268.81;4933305;28;20035;-90
2022/04/06 14:36:07;;;;;;;4.15;2.00;;;;;;;9.96;92.25;98256.47;4934086;29;20634;-90
2022/04/06 14:38:33;;;;;;;2.17;1.58;;;;;;;10.00;92.40;98247.09;4943136;28;20118;-90
2022/04/06 14:40:58;;;;;;;1.92;1.70;;;;;;;10.03;93.66;98243.25;4926928;29;20063;-90
2022/04/06 14:43:25;;;;;;;2.80;1.63;;;;;;;10.06;94.88;98241.06;4933746;28;20035;-90
2022/04/06 14:45:51;;;;;;;2.00;1.55;;;;;;;10.03;94.57;98228.06;4945103;28;20035;-90
2022/04/06 14:48:20;;;;;;;2.72;1.65;;;;;;;10.05;95.03;98215.34;4927936;28;20377;-90
2022/04/06 14:50:46;;;;;;;2.30;1.75;;;;;;;10.07;95.09;98210.66;4925366;28;20032;-90
2022/04/06 14:53:17;;;;;;;2.90;1.95;;;;;;;10.08;95.99;98207.00;4932927;29;20172;-90
2022/04/06 14:55:43;;;;;;;3.28;1.85;;;;;;;10.07;95.62;98225.88;4929892;28;20046;-90
2022/04/06 14:58:11;;;;;;;2.00;1.60;;;;;;;10.10;95.17;98228.19;4940810;28;20504;-90
2022/04/06 15:00:37;;;;;;;1.70;1.60;;;;;;;10.09;95.28;98221.16;4925760;28;20055;-90
2022/04/06 15:03:06;;;;;;;2.22;1.88;;;;;;;10.12;95.27;98225.31;4924236;28;20031;-90
2022/04/06 15:05:33;;;;;;;3.25;1.85;;;;;;;10.08;95.64;98222.19;4940310;28;20062;-90
2022/04/06 15:08:00;;;;;;;4.53;2.00;;;;;;;10.11;96.00;98229.84;4926960;29;20023;-90
2022/04/06 15:10:27;;;;;;;4.00;1.92;;;;;;;10.10;95.32;98236.19;4931696;28;20090;-90
2022/04/06 15:12:58;;;;;;;3.90;2.30;;;;;;;10.13;95.18;98225.16;4924251;29;20070;-90
2022/04/06 15:15:26;;;;;;;3.35;2.50;;;;;;;10.08;94.12;98212.34;4932152;29;20027;-90
2022/04/06 15:17:53;;;;;;;3.00;2.13;;;;;;;10.14;94.34;98216.13;4927458;29;20043;-90
2022/04/06 15:20:19;;;;;;;2.70;2.17;;;;;;;10.07;94.30;98220.53;4927466;28;20180;-90
2022/04/06 15:22:47;;;;;;;2.75;1.98;;;;;;;10.10;93.25;98212.97;4927098;29;20603;-90
2022/04/06 15:25:23;;;;;;;4.05;2.60;;;;;;;10.13;93.53;98206.44;4926400;29;20035;-90
2022/04/06 15:27:49;;;;;;;2.63;2.15;;;;;;;10.12;94.47;98203.97;4942193;28;20363;-90
2022/04/06 15:30:14;;;;;;;4.82;2.40;;;;;;;10.15;95.64;98192.91;4941254;28;20061;-90
2022/04/06 15:32:40;;;;;;;2.65;2.42;;;;;;;10.15;96.20;98188.41;4932926;28;20050;-90
2022/04/06 15:37:50;;;;;;;4.75;2.55;;;;;;;10.15;94.73;98188.41;4943933;29;20380;-90
2022/04/06 15:40:15;;;;;;;2.40;2.20;;;;;;;10.20;95.03;98187.88;4932815;28;20032;-90
2022/04/06 15:43:33;;;;;;;3.83;2.72;;;;;;;10.19;94.10;98181.69;4952979;28;20062;-90
2022/04/06 15:45:59;;;;;;;3.42;2.90;;;;;;;10.19;95.18;98173.69;4943070;28;20541;-88
2022/04/06 15:48:24;;;;;;;3.65;2.60;;;;;;;10.16;95.51;98183.91;4939907;28;20059;-88
2022/04/06 15:50:50;;;;;;;3.80;2.80;;;;;;;10.18;94.40;98176.53;4925254;29;20087;-88
2022/04/06 15:53:16;;;;;;;3.45;3.03;;;;;;;10.18;94.07;98168.53;4940477;28;20043;-88
2022/04/06 15:55:42;;;;;;;3.75;2.92;;;;;;;10.19;94.68;98176.34;4939720;29;20050;-88
2022/04/06 15:58:08;;;;;;;4.13;3.20;;;;;;;10.18;94.62;98171.19;4941278;28;20027;-88
2022/04/06 16:00:33;;;;;;;4.47;3.03;;;;;;;10.18;93.30;98165.84;4933043;29;20042;-88
2022/04/06 16:02:59;;;;;;;5.15;2.95;;;;;;;10.17;93.14;98156.19;4934885;29;20039;-89
2022/04/06 16:05:24;;;;;;;3.40;2.97;;;;;;;10.19;93.27;98154.16;4933936;28;20047;-89
2022/04/06 16:07:50;;;;;;;4.57;3.00;;;;;;;10.17;92.34;98165.03;4926624;29;20039;-89
2022/04/06 16:10:17;;;;;;;3.47;2.90;;;;;;;10.18;92.77;98142.63;4941595;28;20031;-89
2022/04/06 16:12:43;;;;;;;5.07;3.25;;;;;;;10.18;92.73;98139.13;4929354;28;20078;-89
2022/04/06 16:15:09;;;;;;;3.92;3.20;;;;;;;10.17;92.27;98130.28;4944492;28;20031;-89
2022/04/06 16:17:34;;;;;;;3.90;3.33;;;;;;;10.20;92.31;98123.75;4928451;28;20468;-89
2022/04/06 16:20:00;;;;;;;4.13;2.92;;;;;;;10.19;91.62;98130.94;4945580;28;20035;-89
2022/04/06 16:22:26;;;;;;;4.82;3.33;;;;;;;10.18;91.72;98123.94;4944762;28;20501;-90
2022/04/06 16:24:51;;;;;;;4.70;3.38;;;;;;;10.19;92.12;98120.25;4934391;28;20039;-89
2022/04/06 16:27:17;;;;;;;6.97;3.70;;;;;;;10.18;92.29;98123.13;4936436;28;20023;-87
2022/04/06 16:29:43;;;;;;;4.43;3.05;;;;;;;10.21;92.40;98109.44;4944025;28;20476;-89
2022/04/06 16:32:09;;;;;;;5.05;3.60;;;;;;;10.16;92.69;98109.94;4947227;28;20036;-89
2022/04/06 16:34:35;;;;;;;5.20;3.25;;;;;;;10.18;92.45;98107.91;4938947;28;20477;-89
2022/04/06 16:37:02;;;;;;;4.97;3.35;;;;;;;10.19;91.26;98106.91;4930472;28;20051;-89
2022/04/06 16:39:29;;;;;;;5.18;3.55;;;;;;;10.19;91.90;98101.56;4928004;28;20043;-89
2022/04/06 16:41:54;;;;;;;4.72;3.60;;;;;;;10.18;93.21;98102.56;4928574;28;20046;-88
2022/04/06 16:44:22;;;;;;;4.68;3.47;;;;;;;10.18;91.89;98099.91;4933749;28;20035;-88
2022/04/06 16:46:47;;;;;;;4.80;3.40;;;;;;;10.20;92.77;98097.03;4933614;28;20091;-88
2022/04/06 16:49:13;;;;;;;4.68;3.70;;;;;;;10.20;91.84;98089.91;4933140;28;20031;-88
2022/04/06 16:54:24;;;;;;;5.10;3.58;;;;;;;10.19;93.71;98088.22;4943085;28;20077;-88
2022/04/06 16:56:50;;;;;;;4.57;3.40;;;;;;;10.20;93.72;98068.53;4927119;28;20036;-88
2022/04/06 16:59:16;;;;;;;5.45;3.47;;;;;;;10.19;93.29;98064.16;4943501;28;20108;-88
2022/04/06 17:01:42;;;;;;;5.68;3.30;;;;;;;10.23;91.66;98060.16;4935659;28;20069;-88
2022/04/06 17:04:07;;;;;;;7.57;3.53;;;;;;;10.17;91.46;98071.53;4930275;28;20461;-88
2022/04/06 17:06:33;;;;;;;4.55;3.30;;;;;;;10.21;89.62;98080.88;4954151;28;20450;-88
2022/04/06 17:09:01;;;;;;;5.20;3.45;;;;;;;10.22;91.36;98082.53;4931446;28;20520;-88
2022/04/06 17:11:27;;;;;;;4.57;3.70;;;;;;;10.24;92.18;98072.50;4966384;28;20093;-88
2022/04/06 17:13:54;;;;;;;5.75;3.75;;;;;;;10.22;92.30;98074.53;4952361;28;20043;-88
2022/04/06 17:16:19;;;;;;;4.75;3.72;;;;;;;10.19;92.36;98072.19;4952882;28;20034;-88
2022/04/06 17:18:49;;;;;;;7.00;3.92;;;;;;;10.21;92.45;98080.88;4952268;28;20016;-88
2022/04/06 17:21:14;;;;;;;5.53;3.45;;;;;;;10.21;92.93;98072.84;4950363;28;20024;-88
2022/04/06 17:23:39;;;;;;;6.50;4.00;;;;;;;10.18;92.05;98062.50;4937805;28;20094;-88
2022/04/06 17:26:05;;;;;;;7.20;3.80;;;;;;;10.20;91.67;98075.69;4950467;28;20054;-88
2022/04/06 17:28:32;;;;;;;5.45;3.83;;;;;;;10.18;91.45;98062.50;4941997;28;20043;-88
2022/04/06 17:30:58;;;;;;;4.95;3.75;;;;;;;10.24;92.54;98055.63;4948454;28;20035;-88
2022/04/06 17:33:24;;;;;;;6.90;4.15;;;;;;;10.18;93.18;98061.69;4946136;28;20098;-87
2022/04/06 17:35:50;;;;;;;5.18;3.90;;;;;;;10.18;92.20;98049.16;4952581;28;20035;-88
2022/04/06 17:38:16;;;;;;;5.80;3.92;;;;;;;10.19;90.49;98050.81;4956880;28;20028;-88
2022/04/06 17:40:41;;;;;;;6.70;3.78;;;;;;;10.20;91.09;98048.97;4941904;28;20023;-87
2022/04/06 17:43:07;;;;;;;6.18;4.07;;;;;;;10.21;92.86;98054.16;4942722;28;20058;-88
2022/04/06 17:45:32;;;;;;;7.90;4.68;;;;;;;10.18;93.61;98040.31;4933316;28;20122;-88
2022/04/06 17:48:06;;;;;;;6.88;4.30;;;;;;;10.17;93.55;98054.69;4940063;28;20034;-88
2022/04/06 17:50:34;;;;;;;7.78;4.72;;;;;;;10.19;92.34;98036.63;4940006;28;21496;-88
2022/04/06 17:52:59;;;;;;;7.20;4.80;;;;;;;10.21;92.30;98032.78;4947251;28;20475;-88
2022/04/06 17:55:25;;;;;;;7.07;4.40;;;;;;;10.19;92.72;98021.44;4938847;28;20036;-88
2022/04/06 17:57:50;;;;;;;5.97;4.38;;;;;;;10.18;92.26;98022.44;4938529;28;20035;-88